sensor_id;sensor_type;location;lat;lon;timestamp;temperature;humidity
4693;DHT22;11710;48.024;16.296;2023-04-25T05:04:12;10.30;95.20
4693;DHT22;11710;48.024;16.296;2023-04-25T05:06:39;10.40;95.30
4693;DHT22;11710;48.024;16.296;2023-04-25T05:09:06;10.50;95.30
4693;DHT22;11710;48.024;16.296;2023-04-25T05:11:33;10.80;95.30
4693;DHT22;11710;48.024;16.296;2023-04-25T05:14:00;11.40;95.40
4693;DHT22;11710;48.024;16.296;2023-04-25T05:16:28;12.20;94.60
4693;DHT22;11710;48.024;16.296;2023-04-25T05:18:55;12.50;93.80
4693;DHT22;11710;48.024;16.296;2023-04-25T05:21:24;12.50;93.50
4693;DHT22;11710;48.024;16.296;2023-04-25T05:23:51;12.80;93.70
4693;DHT22;11710;48.024;16.296;2023-04-25T05:26:18;14.50;93.70
4693;DHT22;11710;48.024;16.296;2023-04-25T05:28:46;16.90;92.00
4693;DHT22;11710;48.024;16.296;2023-04-25T05:31:13;19.50;87.80
4693;DHT22;11710;48.024;16.296;2023-04-25T05:33:40;22.10;82.10
4693;DHT22;11710;48.024;16.296;2023-04-25T05:36:08;24.40;76.10
4693;DHT22;11710;48.024;16.296;2023-04-25T05:38:40;26.50;70.00
4693;DHT22;11710;48.024;16.296;2023-04-25T05:41:07;28.30;66.10
4693;DHT22;11710;48.024;16.296;2023-04-25T05:43:35;29.90;61.60
4693;DHT22;11710;48.024;16.296;2023-04-25T05:46:02;30.80;58.60
4693;DHT22;11710;48.024;16.296;2023-04-25T05:48:29;31.40;56.20
4693;DHT22;11710;48.024;16.296;2023-04-25T05:50:56;32.20;53.70
4693;DHT22;11710;48.024;16.296;2023-04-25T05:53:23;33.20;51.70
4693;DHT22;11710;48.024;16.296;2023-04-25T05:55:52;33.70;50.00
4693;DHT22;11710;48.024;16.296;2023-04-25T05:58:19;33.60;48.80
4693;DHT22;11710;48.024;16.296;2023-04-25T06:00:46;33.50;48.30
4693;DHT22;11710;48.024;16.296;2023-04-25T06:03:13;32.50;48.60
4693;DHT22;11710;48.024;16.296;2023-04-25T06:05:42;31.10;49.20
4693;DHT22;11710;48.024;16.296;2023-04-25T06:08:09;29.20;50.30
4693;DHT22;11710;48.024;16.296;2023-04-25T06:10:36;27.50;52.10
4693;DHT22;11710;48.024;16.296;2023-04-25T06:13:05;25.90;54.20
4693;DHT22;11710;48.024;16.296;2023-04-25T06:15:32;24.60;55.80
4693;DHT22;11710;48.024;16.296;2023-04-25T06:18:00;23.40;56.90
4693;DHT22;11710;48.024;16.296;2023-04-25T06:20:28;22.60;59.10
4693;DHT22;11710;48.024;16.296;2023-04-25T06:22:55;21.90;59.90
4693;DHT22;11710;48.024;16.296;2023-04-25T06:25:23;21.40;61.50
4693;DHT22;11710;48.024;16.296;2023-04-25T06:27:50;21.10;61.90
4693;DHT22;11710;48.024;16.296;2023-04-25T06:30:18;20.90;63.10
4693;DHT22;11710;48.024;16.296;2023-04-25T06:32:49;20.80;63.00
4693;DHT22;11710;48.024;16.296;2023-04-25T06:35:16;20.60;63.60
4693;DHT22;11710;48.024;16.296;2023-04-25T06:37:44;20.30;64.20
4693;DHT22;11710;48.024;16.296;2023-04-25T06:40:11;19.90;63.90
4693;DHT22;11710;48.024;16.296;2023-04-25T06:42:39;19.80;64.20
4693;DHT22;11710;48.024;16.296;2023-04-25T06:45:07;19.60;65.00
4693;DHT22;11710;48.024;16.296;2023-04-25T06:47:36;19.50;64.70
4693;DHT22;11710;48.024;16.296;2023-04-25T06:50:05;19.20;64.50
4693;DHT22;11710;48.024;16.296;2023-04-25T06:52:32;18.90;64.50
4693;DHT22;11710;48.024;16.296;2023-04-25T06:55:00;18.70;66.00
4693;DHT22;11710;48.024;16.296;2023-04-25T06:57:30;18.70;65.50
4693;DHT22;11710;48.024;16.296;2023-04-25T06:59:57;18.70;65.50
4693;DHT22;11710;48.024;16.296;2023-04-25T07:02:25;18.80;66.40
4693;DHT22;11710;48.024;16.296;2023-04-25T07:04:53;18.80;66.30
4693;DHT22;11710;48.024;16.296;2023-04-25T07:07:25;18.90;66.40
4693;DHT22;11710;48.024;16.296;2023-04-25T07:09:52;19.10;67.10
4693;DHT22;11710;48.024;16.296;2023-04-25T07:12:20;19.20;67.40
4693;DHT22;11710;48.024;16.296;2023-04-25T07:14:47;19.40;66.10
4693;DHT22;11710;48.024;16.296;2023-04-25T07:17:14;19.40;65.30
4693;DHT22;11710;48.024;16.296;2023-04-25T07:19:42;19.40;65.80
4693;DHT22;11710;48.024;16.296;2023-04-25T07:22:12;19.50;66.60
4693;DHT22;11710;48.024;16.296;2023-04-25T07:24:39;19.60;65.60
4693;DHT22;11710;48.024;16.296;2023-04-25T07:27:06;19.50;64.60
4693;DHT22;11710;48.024;16.296;2023-04-25T07:29:33;19.20;64.20
4693;DHT22;11710;48.024;16.296;2023-04-25T07:32:03;19.10;65.50
4693;DHT22;11710;48.024;16.296;2023-04-25T07:34:30;19.00;65.80
4693;DHT22;11710;48.024;16.296;2023-04-25T07:36:58;19.10;65.40
4693;DHT22;11710;48.024;16.296;2023-04-25T07:39:27;19.10;66.50
4693;DHT22;11710;48.024;16.296;2023-04-25T07:41:54;19.10;66.80
4693;DHT22;11710;48.024;16.296;2023-04-25T07:44:21;19.00;65.80
4693;DHT22;11710;48.024;16.296;2023-04-25T07:46:49;18.70;65.80
4693;DHT22;11710;48.024;16.296;2023-04-25T07:49:16;18.40;67.10
4693;DHT22;11710;48.024;16.296;2023-04-25T07:51:43;18.10;65.90
4693;DHT22;11710;48.024;16.296;2023-04-25T07:54:13;18.00;66.80
4693;DHT22;11710;48.024;16.296;2023-04-25T07:56:42;18.00;67.40
4693;DHT22;11710;48.024;16.296;2023-04-25T07:59:09;18.10;68.10
4693;DHT22;11710;48.024;16.296;2023-04-25T08:01:36;18.30;68.00
4693;DHT22;11710;48.024;16.296;2023-04-25T08:04:04;18.40;68.30
4693;DHT22;11710;48.024;16.296;2023-04-25T08:06:31;18.40;67.90
4693;DHT22;11710;48.024;16.296;2023-04-25T08:08:58;18.40;67.70
4693;DHT22;11710;48.024;16.296;2023-04-25T08:11:25;18.30;67.00
4693;DHT22;11710;48.024;16.296;2023-04-25T08:13:54;18.20;67.30
4693;DHT22;11710;48.024;16.296;2023-04-25T08:16:21;18.40;67.50
4693;DHT22;11710;48.024;16.296;2023-04-25T08:18:50;18.50;67.80
4693;DHT22;11710;48.024;16.296;2023-04-25T08:21:17;18.40;66.80
4693;DHT22;11710;48.024;16.296;2023-04-25T08:23:45;18.40;66.80
4693;DHT22;11710;48.024;16.296;2023-04-25T08:26:12;18.60;67.10
4693;DHT22;11710;48.024;16.296;2023-04-25T08:28:39;18.80;66.90
4693;DHT22;11710;48.024;16.296;2023-04-25T08:31:08;19.00;66.50
4693;DHT22;11710;48.024;16.296;2023-04-25T08:33:36;19.10;67.30
4693;DHT22;11710;48.024;16.296;2023-04-25T08:36:03;19.30;66.80
4693;DHT22;11710;48.024;16.296;2023-04-25T08:38:31;19.40;66.30
4693;DHT22;11710;48.024;16.296;2023-04-25T08:41:00;19.50;65.50
4693;DHT22;11710;48.024;16.296;2023-04-25T08:43:29;19.50;64.20
4693;DHT22;11710;48.024;16.296;2023-04-25T08:45:59;19.60;65.00
4693;DHT22;11710;48.024;16.296;2023-04-25T08:48:28;19.80;64.90
4693;DHT22;11710;48.024;16.296;2023-04-25T08:50:58;19.90;65.30
4693;DHT22;11710;48.024;16.296;2023-04-25T08:53:27;19.80;65.10
4693;DHT22;11710;48.024;16.296;2023-04-25T08:55:55;19.80;64.50
4693;DHT22;11710;48.024;16.296;2023-04-25T08:58:23;19.60;64.40
4693;DHT22;11710;48.024;16.296;2023-04-25T09:00:51;19.70;64.30
4693;DHT22;11710;48.024;16.296;2023-04-25T09:03:18;19.80;64.30
4693;DHT22;11710;48.024;16.296;2023-04-25T09:05:47;20.00;65.40
4693;DHT22;11710;48.024;16.296;2023-04-25T09:08:14;20.20;64.80
4693;DHT22;11710;48.024;16.296;2023-04-25T09:10:41;20.40;63.90
4693;DHT22;11710;48.024;16.296;2023-04-25T09:13:10;20.20;63.80
4693;DHT22;11710;48.024;16.296;2023-04-25T09:15:48;20.40;63.90
4693;DHT22;11710;48.024;16.296;2023-04-25T09:18:24;20.60;63.80
4693;DHT22;11710;48.024;16.296;2023-04-25T09:20:54;20.80;63.10
4693;DHT22;11710;48.024;16.296;2023-04-25T09:23:23;20.70;63.30
4693;DHT22;11710;48.024;16.296;2023-04-25T09:25:53;20.50;62.70
4693;DHT22;11710;48.024;16.296;2023-04-25T09:28:30;20.10;63.10
4693;DHT22;11710;48.024;16.296;2023-04-25T09:31:04;19.60;63.80
4693;DHT22;11710;48.024;16.296;2023-04-25T09:33:32;19.20;65.10
4693;DHT22;11710;48.024;16.296;2023-04-25T09:36:07;18.70;64.50
4693;DHT22;11710;48.024;16.296;2023-04-25T09:38:40;18.30;65.60
4693;DHT22;11710;48.024;16.296;2023-04-25T09:41:08;18.10;65.90
4693;DHT22;11710;48.024;16.296;2023-04-25T09:43:36;17.80;66.00
4693;DHT22;11710;48.024;16.296;2023-04-25T09:46:08;17.50;66.30
4693;DHT22;11710;48.024;16.296;2023-04-25T09:48:37;17.40;66.70
4693;DHT22;11710;48.024;16.296;2023-04-25T09:51:07;17.20;66.00
4693;DHT22;11710;48.024;16.296;2023-04-25T09:53:36;17.00;66.10
4693;DHT22;11710;48.024;16.296;2023-04-25T09:56:05;16.90;67.50
4693;DHT22;11710;48.024;16.296;2023-04-25T09:58:34;16.80;67.10
4693;DHT22;11710;48.024;16.296;2023-04-25T10:01:03;16.80;67.60
4693;DHT22;11710;48.024;16.296;2023-04-25T10:03:32;16.90;69.00
4693;DHT22;11710;48.024;16.296;2023-04-25T10:06:01;17.00;68.90
4693;DHT22;11710;48.024;16.296;2023-04-25T10:08:33;17.20;69.40
4693;DHT22;11710;48.024;16.296;2023-04-25T10:11:02;17.40;68.40
4693;DHT22;11710;48.024;16.296;2023-04-25T10:13:30;17.40;69.00
4693;DHT22;11710;48.024;16.296;2023-04-25T10:15:58;17.70;69.10
4693;DHT22;11710;48.024;16.296;2023-04-25T10:18:27;18.20;67.80
4693;DHT22;11710;48.024;16.296;2023-04-25T10:20:55;18.50;67.70
4693;DHT22;11710;48.024;16.296;2023-04-25T10:23:23;18.60;69.30
4693;DHT22;11710;48.024;16.296;2023-04-25T10:25:53;18.10;71.10
4693;DHT22;11710;48.024;16.296;2023-04-25T10:28:20;17.20;71.00
4693;DHT22;11710;48.024;16.296;2023-04-25T10:30:58;16.60;72.40
4693;DHT22;11710;48.024;16.296;2023-04-25T10:33:33;16.00;72.20
4693;DHT22;11710;48.024;16.296;2023-04-25T10:36:09;15.60;75.10
4693;DHT22;11710;48.024;16.296;2023-04-25T10:38:37;15.50;76.50
4693;DHT22;11710;48.024;16.296;2023-04-25T10:41:07;15.60;76.70
4693;DHT22;11710;48.024;16.296;2023-04-25T10:43:37;15.80;76.50
4693;DHT22;11710;48.024;16.296;2023-04-25T10:46:17;15.90;77.00
4693;DHT22;11710;48.024;16.296;2023-04-25T10:48:47;15.90;77.50
4693;DHT22;11710;48.024;16.296;2023-04-25T10:51:21;16.20;76.90
4693;DHT22;11710;48.024;16.296;2023-04-25T10:53:59;16.20;76.60
4693;DHT22;11710;48.024;16.296;2023-04-25T10:56:29;16.20;76.60
4693;DHT22;11710;48.024;16.296;2023-04-25T10:59:05;16.30;76.90
4693;DHT22;11710;48.024;16.296;2023-04-25T11:01:37;16.40;76.50
4693;DHT22;11710;48.024;16.296;2023-04-25T11:04:05;16.70;77.70
4693;DHT22;11710;48.024;16.296;2023-04-25T11:06:41;17.10;73.80
4693;DHT22;11710;48.024;16.296;2023-04-25T11:09:11;17.40;72.10
4693;DHT22;11710;48.024;16.296;2023-04-25T11:11:41;17.40;73.90
4693;DHT22;11710;48.024;16.296;2023-04-25T11:14:11;17.60;73.40
4693;DHT22;11710;48.024;16.296;2023-04-25T11:16:39;17.70;71.10
4693;DHT22;11710;48.024;16.296;2023-04-25T11:19:07;17.90;70.40
4693;DHT22;11710;48.024;16.296;2023-04-25T11:21:35;18.20;69.70
4693;DHT22;11710;48.024;16.296;2023-04-25T11:24:03;18.40;68.20
4693;DHT22;11710;48.024;16.296;2023-04-25T11:26:31;18.50;69.70
4693;DHT22;11710;48.024;16.296;2023-04-25T11:29:01;18.50;69.00
4693;DHT22;11710;48.024;16.296;2023-04-25T11:31:30;18.20;68.90
4693;DHT22;11710;48.024;16.296;2023-04-25T11:33:57;18.10;69.50
4693;DHT22;11710;48.024;16.296;2023-04-25T11:36:25;18.10;70.70
4693;DHT22;11710;48.024;16.296;2023-04-25T11:38:53;17.90;71.70
4693;DHT22;11710;48.024;16.296;2023-04-25T11:41:20;17.70;72.10
4693;DHT22;11710;48.024;16.296;2023-04-25T11:43:48;17.30;72.10
4693;DHT22;11710;48.024;16.296;2023-04-25T11:46:18;17.30;68.60
4693;DHT22;11710;48.024;16.296;2023-04-25T11:48:48;17.20;72.40
4693;DHT22;11710;48.024;16.296;2023-04-25T11:51:16;16.80;75.70
4693;DHT22;11710;48.024;16.296;2023-04-25T11:53:45;15.90;77.60
4693;DHT22;11710;48.024;16.296;2023-04-25T11:56:13;15.40;79.70
4693;DHT22;11710;48.024;16.296;2023-04-25T11:58:57;15.00;80.50
4693;DHT22;11710;48.024;16.296;2023-04-25T12:01:28;14.80;81.70
4693;DHT22;11710;48.024;16.296;2023-04-25T12:03:56;15.00;81.00
4693;DHT22;11710;48.024;16.296;2023-04-25T12:06:26;15.20;76.20
4693;DHT22;11710;48.024;16.296;2023-04-25T12:09:01;15.50;72.40
4693;DHT22;11710;48.024;16.296;2023-04-25T12:11:30;15.70;69.40
4693;DHT22;11710;48.024;16.296;2023-04-25T12:14:02;16.00;70.20
4693;DHT22;11710;48.024;16.296;2023-04-25T12:16:40;16.20;69.70
4693;DHT22;11710;48.024;16.296;2023-04-25T12:19:07;16.30;70.10
4693;DHT22;11710;48.024;16.296;2023-04-25T12:21:35;16.50;69.70
4693;DHT22;11710;48.024;16.296;2023-04-25T12:24:13;16.80;70.20
4693;DHT22;11710;48.024;16.296;2023-04-25T12:26:50;17.00;69.60
4693;DHT22;11710;48.024;16.296;2023-04-25T12:29:20;17.20;70.00
4693;DHT22;11710;48.024;16.296;2023-04-25T12:31:49;17.40;70.70
4693;DHT22;11710;48.024;16.296;2023-04-25T12:34:26;17.70;69.90
4693;DHT22;11710;48.024;16.296;2023-04-25T12:37:05;18.00;70.10
4693;DHT22;11710;48.024;16.296;2023-04-25T12:39:33;18.30;69.40
4693;DHT22;11710;48.024;16.296;2023-04-25T12:42:00;18.50;70.50
4693;DHT22;11710;48.024;16.296;2023-04-25T12:44:28;18.70;70.10
4693;DHT22;11710;48.024;16.296;2023-04-25T12:46:57;18.70;69.70
4693;DHT22;11710;48.024;16.296;2023-04-25T12:49:25;18.50;70.10
4693;DHT22;11710;48.024;16.296;2023-04-25T12:51:53;18.30;69.60
4693;DHT22;11710;48.024;16.296;2023-04-25T12:54:20;18.10;69.90
4693;DHT22;11710;48.024;16.296;2023-04-25T12:56:48;18.00;69.80
4693;DHT22;11710;48.024;16.296;2023-04-25T12:59:16;18.10;70.20
4693;DHT22;11710;48.024;16.296;2023-04-25T13:01:43;18.00;69.30
4693;DHT22;11710;48.024;16.296;2023-04-25T13:04:13;18.10;67.90
4693;DHT22;11710;48.024;16.296;2023-04-25T13:06:41;18.20;66.60
4693;DHT22;11710;48.024;16.296;2023-04-25T13:09:09;18.00;66.40
4693;DHT22;11710;48.024;16.296;2023-04-25T13:11:37;18.00;68.20
4693;DHT22;11710;48.024;16.296;2023-04-25T13:14:06;18.10;68.00
4693;DHT22;11710;48.024;16.296;2023-04-25T13:16:33;18.20;67.40
4693;DHT22;11710;48.024;16.296;2023-04-25T13:19:00;18.20;67.90
4693;DHT22;11710;48.024;16.296;2023-04-25T13:21:30;18.20;66.30
4693;DHT22;11710;48.024;16.296;2023-04-25T13:23:57;18.20;66.20
4693;DHT22;11710;48.024;16.296;2023-04-25T13:26:26;18.30;65.60
4693;DHT22;11710;48.024;16.296;2023-04-25T13:28:53;18.50;65.80
4693;DHT22;11710;48.024;16.296;2023-04-25T13:31:20;18.70;66.00
4693;DHT22;11710;48.024;16.296;2023-04-25T13:33:47;18.90;65.10
4693;DHT22;11710;48.024;16.296;2023-04-25T13:36:15;19.10;65.50
4693;DHT22;11710;48.024;16.296;2023-04-25T13:38:43;19.10;63.60
4693;DHT22;11710;48.024;16.296;2023-04-25T13:41:13;19.10;63.80
4693;DHT22;11710;48.024;16.296;2023-04-25T13:43:46;19.00;64.00
4693;DHT22;11710;48.024;16.296;2023-04-25T13:46:15;18.90;65.10
4693;DHT22;11710;48.024;16.296;2023-04-25T13:48:43;18.90;66.10
4693;DHT22;11710;48.024;16.296;2023-04-25T13:51:16;18.60;67.10
4693;DHT22;11710;48.024;16.296;2023-04-25T13:53:45;18.50;67.90
4693;DHT22;11710;48.024;16.296;2023-04-25T13:56:12;18.30;67.30
4693;DHT22;11710;48.024;16.296;2023-04-25T13:58:39;18.20;68.50
4693;DHT22;11710;48.024;16.296;2023-04-25T14:01:06;18.20;68.60
4693;DHT22;11710;48.024;16.296;2023-04-25T14:03:34;18.00;68.50
4693;DHT22;11710;48.024;16.296;2023-04-25T14:06:01;18.00;69.40
4693;DHT22;11710;48.024;16.296;2023-04-25T14:08:28;17.80;69.60
4693;DHT22;11710;48.024;16.296;2023-04-25T14:10:57;17.70;69.80
4693;DHT22;11710;48.024;16.296;2023-04-25T14:13:24;17.50;70.10
4693;DHT22;11710;48.024;16.296;2023-04-25T14:15:51;17.40;70.60
4693;DHT22;11710;48.024;16.296;2023-04-25T14:18:19;17.30;71.80
4693;DHT22;11710;48.024;16.296;2023-04-25T14:20:46;17.40;71.80
4693;DHT22;11710;48.024;16.296;2023-04-25T14:23:13;17.40;71.60
4693;DHT22;11710;48.024;16.296;2023-04-25T14:25:40;17.50;71.40
4693;DHT22;11710;48.024;16.296;2023-04-25T14:28:10;17.40;71.60
4693;DHT22;11710;48.024;16.296;2023-04-25T14:30:37;17.40;70.60
4693;DHT22;11710;48.024;16.296;2023-04-25T14:33:04;17.30;69.80
4693;DHT22;11710;48.024;16.296;2023-04-25T14:35:32;17.10;70.20
4693;DHT22;11710;48.024;16.296;2023-04-25T14:37:59;17.10;70.40
4693;DHT22;11710;48.024;16.296;2023-04-25T14:40:26;17.00;70.80
4693;DHT22;11710;48.024;16.296;2023-04-25T14:42:54;17.00;70.70
4693;DHT22;11710;48.024;16.296;2023-04-25T14:45:22;17.00;70.40
4693;DHT22;11710;48.024;16.296;2023-04-25T14:47:50;17.10;70.70
4693;DHT22;11710;48.024;16.296;2023-04-25T14:50:17;17.20;70.90
4693;DHT22;11710;48.024;16.296;2023-04-25T14:52:45;17.20;69.80
4693;DHT22;11710;48.024;16.296;2023-04-25T14:55:12;17.00;69.10
4693;DHT22;11710;48.024;16.296;2023-04-25T14:57:40;16.80;69.20
4693;DHT22;11710;48.024;16.296;2023-04-25T15:00:09;16.60;69.40
4693;DHT22;11710;48.024;16.296;2023-04-25T15:02:42;16.60;69.50
4693;DHT22;11710;48.024;16.296;2023-04-25T15:05:09;16.60;69.70
4693;DHT22;11710;48.024;16.296;2023-04-25T15:07:36;16.70;70.10
4693;DHT22;11710;48.024;16.296;2023-04-25T15:10:06;16.80;69.50
4693;DHT22;11710;48.024;16.296;2023-04-25T15:12:39;16.80;69.40
4693;DHT22;11710;48.024;16.296;2023-04-25T15:15:08;16.90;69.60
4693;DHT22;11710;48.024;16.296;2023-04-25T15:17:37;16.80;68.90
4693;DHT22;11710;48.024;16.296;2023-04-25T15:20:08;16.90;70.20
4693;DHT22;11710;48.024;16.296;2023-04-25T15:22:36;16.80;69.70
4693;DHT22;11710;48.024;16.296;2023-04-25T15:25:05;16.80;70.00
4693;DHT22;11710;48.024;16.296;2023-04-25T15:27:34;16.90;70.30
4693;DHT22;11710;48.024;16.296;2023-04-25T15:30:07;17.00;70.90
4693;DHT22;11710;48.024;16.296;2023-04-25T15:32:37;17.00;71.50
4693;DHT22;11710;48.024;16.296;2023-04-25T15:35:07;17.00;72.10
4693;DHT22;11710;48.024;16.296;2023-04-25T15:37:35;16.90;72.80
4693;DHT22;11710;48.024;16.296;2023-04-25T15:40:05;16.80;74.10
4693;DHT22;11710;48.024;16.296;2023-04-25T15:42:35;16.90;75.00
4693;DHT22;11710;48.024;16.296;2023-04-25T15:45:03;16.90;74.80
4693;DHT22;11710;48.024;16.296;2023-04-25T15:47:30;16.80;73.90
4693;DHT22;11710;48.024;16.296;2023-04-25T15:49:57;16.70;73.50
4693;DHT22;11710;48.024;16.296;2023-04-25T15:52:27;16.50;72.60
4693;DHT22;11710;48.024;16.296;2023-04-25T15:54:54;16.50;72.90
4693;DHT22;11710;48.024;16.296;2023-04-25T15:57:21;16.40;72.80
4693;DHT22;11710;48.024;16.296;2023-04-25T15:59:49;16.40;72.80
4693;DHT22;11710;48.024;16.296;2023-04-25T16:02:17;16.30;72.60
4693;DHT22;11710;48.024;16.296;2023-04-25T16:04:44;16.30;71.80
4693;DHT22;11710;48.024;16.296;2023-04-25T16:07:12;16.20;71.20
4693;DHT22;11710;48.024;16.296;2023-04-25T16:09:40;15.80;71.30
4693;DHT22;11710;48.024;16.296;2023-04-25T16:12:09;15.60;72.10
4693;DHT22;11710;48.024;16.296;2023-04-25T16:14:37;15.60;72.70
4693;DHT22;11710;48.024;16.296;2023-04-25T16:17:04;15.60;72.70
4693;DHT22;11710;48.024;16.296;2023-04-25T16:19:31;15.60;73.20
4693;DHT22;11710;48.024;16.296;2023-04-25T16:21:59;15.60;72.90
4693;DHT22;11710;48.024;16.296;2023-04-25T16:24:27;15.50;73.50
4693;DHT22;11710;48.024;16.296;2023-04-25T16:26:56;15.40;73.50
4693;DHT22;11710;48.024;16.296;2023-04-25T16:29:23;15.30;73.90
4693;DHT22;11710;48.024;16.296;2023-04-25T16:31:51;15.30;74.60
4693;DHT22;11710;48.024;16.296;2023-04-25T16:34:18;15.20;75.20
4693;DHT22;11710;48.024;16.296;2023-04-25T16:36:48;15.20;76.10
4693;DHT22;11710;48.024;16.296;2023-04-25T16:39:15;15.00;76.50
4693;DHT22;11710;48.024;16.296;2023-04-25T16:41:43;14.80;76.70
4693;DHT22;11710;48.024;16.296;2023-04-25T16:44:12;14.60;77.10
4693;DHT22;11710;48.024;16.296;2023-04-25T16:46:39;14.50;77.70
4693;DHT22;11710;48.024;16.296;2023-04-25T16:49:07;14.40;77.90
4693;DHT22;11710;48.024;16.296;2023-04-25T16:51:34;14.30;78.50
4693;DHT22;11710;48.024;16.296;2023-04-25T16:54:02;14.20;78.80
4693;DHT22;11710;48.024;16.296;2023-04-25T16:56:29;14.10;78.90
4693;DHT22;11710;48.024;16.296;2023-04-25T16:58:56;13.90;79.10
4693;DHT22;11710;48.024;16.296;2023-04-25T17:01:25;13.80;78.90
4693;DHT22;11710;48.024;16.296;2023-04-25T17:03:52;13.70;79.40
4693;DHT22;11710;48.024;16.296;2023-04-25T17:06:19;13.60;79.40
4693;DHT22;11710;48.024;16.296;2023-04-25T17:08:46;13.40;79.50
4693;DHT22;11710;48.024;16.296;2023-04-25T17:11:14;13.30;79.70
4693;DHT22;11710;48.024;16.296;2023-04-25T17:13:42;13.20;80.00
4693;DHT22;11710;48.024;16.296;2023-04-25T17:16:10;13.10;79.80
4693;DHT22;11710;48.024;16.296;2023-04-25T17:18:42;12.90;80.10
4693;DHT22;11710;48.024;16.296;2023-04-25T17:21:09;12.80;80.40
4693;DHT22;11710;48.024;16.296;2023-04-25T17:23:37;12.70;80.80
4693;DHT22;11710;48.024;16.296;2023-04-25T17:26:09;12.50;81.30
4693;DHT22;11710;48.024;16.296;2023-04-25T17:28:37;12.30;81.60
4693;DHT22;11710;48.024;16.296;2023-04-25T17:31:06;12.20;82.40
4693;DHT22;11710;48.024;16.296;2023-04-25T17:33:34;12.10;83.00
4693;DHT22;11710;48.024;16.296;2023-04-25T17:36:03;12.00;83.50
4693;DHT22;11710;48.024;16.296;2023-04-25T17:38:30;11.80;83.90
4693;DHT22;11710;48.024;16.296;2023-04-25T17:40:57;11.70;84.50
4693;DHT22;11710;48.024;16.296;2023-04-25T17:43:25;11.60;85.20
4693;DHT22;11710;48.024;16.296;2023-04-25T17:45:52;11.50;85.70
4693;DHT22;11710;48.024;16.296;2023-04-25T17:48:19;11.40;86.30
4693;DHT22;11710;48.024;16.296;2023-04-25T17:50:47;11.30;86.90
4693;DHT22;11710;48.024;16.296;2023-04-25T17:53:16;11.20;87.70
4693;DHT22;11710;48.024;16.296;2023-04-25T17:55:43;11.10;88.10
4693;DHT22;11710;48.024;16.296;2023-04-25T17:58:10;11.00;88.40
4693;DHT22;11710;48.024;16.296;2023-04-25T18:00:38;11.00;88.90
4693;DHT22;11710;48.024;16.296;2023-04-25T18:03:06;10.90;89.10
4693;DHT22;11710;48.024;16.296;2023-04-25T18:05:34;10.90;89.60
4693;DHT22;11710;48.024;16.296;2023-04-25T18:08:01;10.80;90.00
4693;DHT22;11710;48.024;16.296;2023-04-25T18:10:31;10.80;90.10
4693;DHT22;11710;48.024;16.296;2023-04-25T18:13:00;10.70;90.30
4693;DHT22;11710;48.024;16.296;2023-04-25T18:15:28;10.70;90.40
4693;DHT22;11710;48.024;16.296;2023-04-25T18:17:55;10.60;90.60
4693;DHT22;11710;48.024;16.296;2023-04-25T18:20:23;10.60;90.80
4693;DHT22;11710;48.024;16.296;2023-04-25T18:22:50;10.50;90.90
4693;DHT22;11710;48.024;16.296;2023-04-25T18:25:17;10.50;91.10
4693;DHT22;11710;48.024;16.296;2023-04-25T18:27:46;10.40;91.30
4693;DHT22;11710;48.024;16.296;2023-04-25T18:30:15;10.40;91.50
4693;DHT22;11710;48.024;16.296;2023-04-25T18:32:42;10.30;91.60
4693;DHT22;11710;48.024;16.296;2023-04-25T18:35:09;10.30;91.90
4693;DHT22;11710;48.024;16.296;2023-04-25T18:37:37;10.30;92.10
4693;DHT22;11710;48.024;16.296;2023-04-25T18:40:06;10.20;92.30
4693;DHT22;11710;48.024;16.296;2023-04-25T18:42:35;10.20;92.50
4693;DHT22;11710;48.024;16.296;2023-04-25T18:45:06;10.10;92.60
4693;DHT22;11710;48.024;16.296;2023-04-25T18:47:34;10.10;92.80
4693;DHT22;11710;48.024;16.296;2023-04-25T18:50:01;10.10;92.90
4693;DHT22;11710;48.024;16.296;2023-04-25T18:52:30;10.00;93.00
4693;DHT22;11710;48.024;16.296;2023-04-25T18:54:58;10.00;93.00
4693;DHT22;11710;48.024;16.296;2023-04-25T18:57:27;10.00;93.10
4693;DHT22;11710;48.024;16.296;2023-04-25T18:59:55;10.00;93.10
4693;DHT22;11710;48.024;16.296;2023-04-25T19:02:25;10.00;93.10
4693;DHT22;11710;48.024;16.296;2023-04-25T19:04:53;10.00;93.20
4693;DHT22;11710;48.024;16.296;2023-04-25T19:07:21;10.00;93.20
4693;DHT22;11710;48.024;16.296;2023-04-25T19:09:50;10.00;93.30
4693;DHT22;11710;48.024;16.296;2023-04-25T19:12:19;10.00;93.30
4693;DHT22;11710;48.024;16.296;2023-04-25T19:14:48;10.00;93.30
4693;DHT22;11710;48.024;16.296;2023-04-25T19:17:19;10.00;93.30
4693;DHT22;11710;48.024;16.296;2023-04-25T19:19:50;10.00;93.40
4693;DHT22;11710;48.024;16.296;2023-04-25T19:22:18;10.00;93.50
4693;DHT22;11710;48.024;16.296;2023-04-25T19:24:45;10.00;93.60
4693;DHT22;11710;48.024;16.296;2023-04-25T19:27:13;10.00;93.70
4693;DHT22;11710;48.024;16.296;2023-04-25T19:29:42;10.00;93.80
4693;DHT22;11710;48.024;16.296;2023-04-25T19:32:13;10.00;93.80
4693;DHT22;11710;48.024;16.296;2023-04-25T19:34:42;10.00;94.00
4693;DHT22;11710;48.024;16.296;2023-04-25T19:37:11;10.00;94.10
4693;DHT22;11710;48.024;16.296;2023-04-25T19:39:39;10.00;94.20
4693;DHT22;11710;48.024;16.296;2023-04-25T19:42:07;10.00;94.30
4693;DHT22;11710;48.024;16.296;2023-04-25T19:44:36;10.00;94.40
4693;DHT22;11710;48.024;16.296;2023-04-25T19:47:08;10.00;94.50
4693;DHT22;11710;48.024;16.296;2023-04-25T19:49:38;10.00;94.60
4693;DHT22;11710;48.024;16.296;2023-04-25T19:52:07;10.00;94.70
4693;DHT22;11710;48.024;16.296;2023-04-25T19:54:42;10.00;94.90
4693;DHT22;11710;48.024;16.296;2023-04-25T19:57:12;10.00;95.00
4693;DHT22;11710;48.024;16.296;2023-04-25T19:59:40;10.00;95.20
4693;DHT22;11710;48.024;16.296;2023-04-25T20:02:12;10.00;95.50
4693;DHT22;11710;48.024;16.296;2023-04-25T20:04:42;10.00;95.60
4693;DHT22;11710;48.024;16.296;2023-04-25T20:07:11;10.00;95.70
4693;DHT22;11710;48.024;16.296;2023-04-25T20:09:40;10.10;96.10
4693;DHT22;11710;48.024;16.296;2023-04-25T20:12:08;10.10;95.90
4693;DHT22;11710;48.024;16.296;2023-04-25T20:14:36;10.10;96.50
4693;DHT22;11710;48.024;16.296;2023-04-25T20:17:07;10.20;97.00
4693;DHT22;11710;48.024;16.296;2023-04-25T20:19:38;10.20;97.20
4693;DHT22;11710;48.024;16.296;2023-04-25T20:22:08;10.20;97.20
4693;DHT22;11710;48.024;16.296;2023-04-25T20:24:36;10.20;97.10
4693;DHT22;11710;48.024;16.296;2023-04-25T20:27:06;10.20;97.00
4693;DHT22;11710;48.024;16.296;2023-04-25T20:29:35;10.20;97.00
4693;DHT22;11710;48.024;16.296;2023-04-25T20:32:03;10.20;97.00
4693;DHT22;11710;48.024;16.296;2023-04-25T20:34:31;10.20;96.90
